createdAt,value
2019-02-04T16:13:17.232Z,140.00
2019-02-04T16:14:17.209Z,124.00
2019-02-04T16:16:11.397Z,92.00
2019-02-04T16:17:11.303Z,88.00
2019-02-04T16:18:11.299Z,80.00
2019-02-04T16:19:11.303Z,72.00
2019-02-04T16:20:11.301Z,64.00
2019-02-04T16:21:11.327Z,60.00
2019-02-04T16:22:11.304Z,52.00
2019-02-04T16:23:11.317Z,44.00
2019-02-04T16:24:11.312Z,44.00
2019-02-04T16:25:11.304Z,36.00
2019-02-04T16:26:11.312Z,36.00
2019-02-04T16:27:11.316Z,32.00
2019-02-04T16:28:11.311Z,28.00
2019-02-04T16:29:11.342Z,28.00
2019-02-04T16:30:11.341Z,20.00
2019-02-04T16:31:11.325Z,20.00
2019-02-04T16:32:11.335Z,20.00
2019-02-04T16:33:11.336Z,16.00
2019-02-04T16:34:11.337Z,16.00
2019-02-04T16:35:11.343Z,12.00
2019-02-04T16:36:11.346Z,12.00
2019-02-04T16:37:11.334Z,8.00
2019-02-04T16:38:11.334Z,8.00
2019-02-04T16:39:11.342Z,12.00
2019-02-04T16:40:11.352Z,8.00
2019-02-04T16:41:11.353Z,4.00
2019-02-04T16:42:11.353Z,8.00
2019-02-04T16:43:11.357Z,4.00
2019-02-04T16:44:11.362Z,4.00
2019-02-04T16:45:11.359Z,4.00
2019-02-04T16:46:11.358Z,4.00
2019-02-04T16:47:11.361Z,0.00
2019-02-04T16:48:11.363Z,4.00
2019-02-04T16:49:11.370Z,4.00
2019-02-04T16:50:11.359Z,0.00
2019-02-04T16:51:12.003Z,0.00
2019-02-04T16:52:11.377Z,4.00
2019-02-04T16:53:11.370Z,4.00
2019-02-04T16:54:11.374Z,4.00
2019-02-04T16:55:11.386Z,4.00
2019-02-04T16:56:11.393Z,0.00
2019-02-04T16:57:11.386Z,4.00
2019-02-04T16:58:11.395Z,0.00
2019-02-04T16:59:11.400Z,0.00
2019-02-04T17:00:11.391Z,4.00
2019-02-04T17:01:11.390Z,0.00
2019-02-04T17:02:11.398Z,0.00
2019-02-04T17:03:11.394Z,4.00
2019-02-04T17:04:11.406Z,0.00
2019-02-04T17:05:11.458Z,4.00
2019-02-04T17:06:11.403Z,0.00
2019-02-04T17:07:11.422Z,0.00
2019-02-04T17:08:11.418Z,0.00
2019-02-04T17:09:11.407Z,4.00
2019-02-04T17:10:11.471Z,0.00
2019-02-04T17:11:11.436Z,0.00
2019-02-04T17:12:11.423Z,0.00
2019-02-04T17:13:11.412Z,0.00
2019-02-04T17:14:11.506Z,0.00
2019-02-04T17:15:11.423Z,0.00
2019-02-04T17:16:11.435Z,4.00
2019-02-04T17:17:11.428Z,0.00
2019-02-04T17:18:11.421Z,0.00
2019-02-04T17:19:11.432Z,0.00
2019-02-04T17:20:11.430Z,0.00
2019-02-04T17:21:11.446Z,4.00
2019-02-04T17:22:11.438Z,0.00
2019-02-04T17:23:21.873Z,0.00
2019-02-04T17:24:11.441Z,0.00
2019-02-04T17:25:11.445Z,4.00
2019-02-04T17:26:11.456Z,4.00
2019-02-04T17:27:11.458Z,0.00
2019-02-04T17:28:11.454Z,4.00
2019-02-04T17:29:11.453Z,4.00
2019-02-04T17:30:11.455Z,0.00
2019-02-04T17:31:11.457Z,0.00
2019-02-04T17:32:11.448Z,0.00
2019-02-04T17:33:11.453Z,0.00
2019-02-04T17:34:11.460Z,0.00
2019-02-04T17:35:11.459Z,4.00
2019-02-04T17:36:11.479Z,0.00
2019-02-04T17:37:11.492Z,0.00
2019-02-04T17:38:11.468Z,4.00
2019-02-04T17:39:11.470Z,4.00
2019-02-04T17:40:11.472Z,0.00
2019-02-04T17:41:11.469Z,4.00
2019-02-04T17:42:11.474Z,0.00
2019-02-04T17:43:11.471Z,0.00
2019-02-04T17:44:11.483Z,0.00
2019-02-04T17:45:11.494Z,0.00
2019-02-04T17:46:11.483Z,0.00
2019-02-04T17:47:11.483Z,4.00
2019-02-04T17:48:11.483Z,0.00
2019-02-04T17:49:11.484Z,0.00
2019-02-04T17:50:11.496Z,0.00
2019-02-04T17:51:11.497Z,4.00
2019-02-04T17:52:11.539Z,0.00
2019-02-04T17:53:11.496Z,0.00
2019-02-04T17:54:11.499Z,0.00
2019-02-04T17:55:11.490Z,0.00
2019-02-04T17:56:11.512Z,0.00
2019-02-04T17:57:11.509Z,4.00
2019-02-04T17:58:11.527Z,0.00
2019-02-04T17:59:11.513Z,4.00
2019-02-04T18:00:11.511Z,0.00
2019-02-04T18:01:11.516Z,0.00
2019-02-04T18:02:12.049Z,4.00
2019-02-04T18:03:11.530Z,4.00
2019-02-04T18:04:11.524Z,4.00
2019-02-04T18:05:11.523Z,0.00
2019-02-04T18:06:11.523Z,4.00
2019-02-04T18:07:11.528Z,0.00
2019-02-04T18:08:11.522Z,0.00
2019-02-04T18:09:11.529Z,0.00
2019-02-04T18:10:11.546Z,0.00
2019-02-04T18:11:11.540Z,4.00
2019-02-04T18:12:11.535Z,4.00
2019-02-04T18:13:11.539Z,0.00
2019-02-04T18:14:11.547Z,0.00
2019-02-04T18:15:11.537Z,0.00
2019-02-04T18:16:11.551Z,0.00
2019-02-04T18:17:11.545Z,4.00
2019-02-04T18:18:11.545Z,4.00
2019-02-04T18:19:11.548Z,0.00
2019-02-04T18:20:11.550Z,0.00
2019-02-04T18:21:11.578Z,0.00
2019-02-04T18:22:11.554Z,4.00
2019-02-04T18:23:11.556Z,0.00
2019-02-04T18:24:11.558Z,0.00
2019-02-04T18:25:11.571Z,0.00
2019-02-04T18:26:11.566Z,0.00
2019-02-04T18:27:11.566Z,4.00
2019-02-04T18:28:11.575Z,4.00
2019-02-04T18:29:11.570Z,0.00
2019-02-04T18:30:11.579Z,0.00
2019-02-04T18:31:11.573Z,0.00
2019-02-04T18:32:11.592Z,0.00
2019-02-04T18:33:11.587Z,0.00
2019-02-04T18:34:11.592Z,0.00
2019-02-04T18:35:11.578Z,0.00
2019-02-04T18:36:11.587Z,4.00
2019-02-04T18:37:11.592Z,0.00
2019-02-04T18:38:11.586Z,0.00
2019-02-04T18:39:11.593Z,0.00
2019-02-04T18:40:11.592Z,0.00
2019-02-04T18:41:11.600Z,0.00
2019-02-04T18:42:11.596Z,0.00
2019-02-04T18:43:11.594Z,4.00
2019-02-04T18:44:11.597Z,0.00
2019-02-04T18:45:11.599Z,4.00
2019-02-04T18:46:11.614Z,0.00
2019-02-04T18:47:11.618Z,0.00
2019-02-04T18:48:11.602Z,4.00
2019-02-04T18:49:11.647Z,0.00
2019-02-04T18:50:11.618Z,0.00
2019-02-04T18:51:11.615Z,4.00
2019-02-04T18:52:11.632Z,0.00
2019-02-04T18:53:11.631Z,0.00
2019-02-04T18:54:11.614Z,0.00
2019-02-04T18:55:11.637Z,0.00
2019-02-04T18:56:11.629Z,0.00
2019-02-04T18:57:11.629Z,0.00
2019-02-04T18:58:11.634Z,0.00
2019-02-04T18:59:11.632Z,0.00
2019-02-04T19:00:11.632Z,4.00
2019-02-04T19:01:11.638Z,0.00
2019-02-04T19:02:11.638Z,0.00
2019-02-04T19:03:17.367Z,4.00
2019-02-04T19:04:11.635Z,0.00
2019-02-04T19:05:11.636Z,4.00
2019-02-04T19:06:11.647Z,0.00
2019-02-04T19:07:11.638Z,0.00
2019-02-04T19:08:11.645Z,0.00
2019-02-04T19:09:11.646Z,4.00
2019-02-04T19:10:11.675Z,0.00
2019-02-04T19:11:11.654Z,0.00
2019-02-04T19:12:11.649Z,0.00
2019-02-04T19:13:11.658Z,0.00
2019-02-04T19:14:11.677Z,0.00
2019-02-04T19:15:11.658Z,4.00
2019-02-04T19:16:11.811Z,0.00
2019-02-04T19:17:11.671Z,0.00
2019-02-04T19:18:11.676Z,4.00
2019-02-04T19:19:11.668Z,4.00
2019-02-04T19:20:11.767Z,0.00
2019-02-04T19:21:11.680Z,4.00
2019-02-04T19:22:11.702Z,4.00
2019-02-04T19:23:11.683Z,0.00
2019-02-04T19:24:11.793Z,0.00
2019-02-04T19:25:11.677Z,0.00
2019-02-04T19:26:11.775Z,0.00
2019-02-04T19:27:11.683Z,0.00
2019-02-04T19:28:11.805Z,0.00
2019-02-04T19:29:11.690Z,4.00
2019-02-04T19:30:11.816Z,0.00
2019-02-04T19:31:11.687Z,0.00
2019-02-04T19:32:11.763Z,0.00
2019-02-04T19:33:11.706Z,0.00
2019-02-04T19:34:11.813Z,0.00
2019-02-04T19:35:11.704Z,0.00
2019-02-04T19:36:11.918Z,0.00
2019-02-04T19:37:11.711Z,0.00
2019-02-04T19:38:11.927Z,0.00
2019-02-04T19:39:11.707Z,0.00
2019-02-04T19:40:11.891Z,0.00
2019-02-04T19:41:11.704Z,0.00
2019-02-04T19:42:11.796Z,0.00
2019-02-04T19:43:11.714Z,0.00
2019-02-04T19:44:11.859Z,0.00
2019-02-04T19:45:11.715Z,0.00
2019-02-04T19:46:11.757Z,0.00
2019-02-04T19:47:11.731Z,0.00
2019-02-04T19:48:11.746Z,0.00
2019-02-04T19:49:11.725Z,0.00
2019-02-04T19:50:11.781Z,0.00
2019-02-04T19:51:11.723Z,4.00
2019-02-04T19:52:11.804Z,0.00
2019-02-04T19:53:11.752Z,0.00
2019-02-04T19:54:21.333Z,0.00
2019-02-04T19:55:11.734Z,0.00
2019-02-04T19:56:11.751Z,0.00
2019-02-04T19:57:11.754Z,0.00
2019-02-04T19:58:11.756Z,0.00
2019-02-04T19:59:11.741Z,0.00
2019-02-04T20:00:11.763Z,0.00
2019-02-04T20:01:11.746Z,0.00
2019-02-04T20:02:11.739Z,4.00
2019-02-04T20:03:11.744Z,0.00
2019-02-04T20:04:11.754Z,0.00
2019-02-04T20:05:11.751Z,0.00
2019-02-04T20:06:11.759Z,0.00
2019-02-04T20:07:11.759Z,0.00
2019-02-04T20:08:11.770Z,0.00
2019-02-04T20:09:11.759Z,0.00
2019-02-04T20:10:11.776Z,0.00
2019-02-04T20:11:11.774Z,0.00
2019-02-04T20:12:11.770Z,0.00
2019-02-04T20:13:11.766Z,0.00
2019-02-04T20:14:11.778Z,0.00
2019-02-04T20:15:11.772Z,4.00
2019-02-04T20:16:11.775Z,0.00
2019-02-04T20:17:11.782Z,0.00
2019-02-04T20:18:11.781Z,0.00
2019-02-04T20:19:11.782Z,0.00
2019-02-04T20:20:11.778Z,0.00
2019-02-04T20:21:11.780Z,0.00
2019-02-04T20:22:11.792Z,0.00
2019-02-04T20:23:11.796Z,0.00
2019-02-04T20:24:11.778Z,0.00
2019-02-04T20:25:11.798Z,0.00
2019-02-04T20:26:11.792Z,0.00
2019-02-04T20:27:11.797Z,0.00
2019-02-04T20:28:11.800Z,0.00
2019-02-04T20:29:11.793Z,4.00
2019-02-04T20:30:11.812Z,0.00
2019-02-04T20:31:11.824Z,0.00
2019-02-04T20:32:11.794Z,0.00
2019-02-04T20:33:11.805Z,0.00
2019-02-04T20:34:11.822Z,0.00
2019-02-04T20:35:11.810Z,0.00
2019-02-04T20:36:11.815Z,0.00
2019-02-04T20:37:11.820Z,0.00
2019-02-04T20:38:11.812Z,0.00
2019-02-04T20:39:11.820Z,0.00
2019-02-04T20:40:11.876Z,0.00
2019-02-04T20:41:11.845Z,0.00
2019-02-04T20:42:11.821Z,0.00
2019-02-04T20:43:11.830Z,0.00
2019-02-04T20:44:11.862Z,0.00
2019-02-04T20:45:11.840Z,0.00
2019-02-04T20:46:11.828Z,0.00
2019-02-04T20:47:11.827Z,0.00
2019-02-04T20:48:11.835Z,0.00
2019-02-04T20:49:11.845Z,0.00
2019-02-04T20:50:11.842Z,0.00
2019-02-04T20:51:11.854Z,0.00
2019-02-04T20:52:11.840Z,0.00
2019-02-04T20:53:11.847Z,0.00
2019-02-04T20:54:19.509Z,0.00
2019-02-04T20:55:11.843Z,0.00
2019-02-04T20:56:11.867Z,0.00
2019-02-04T20:57:11.853Z,0.00
2019-02-04T20:58:11.893Z,0.00
2019-02-04T20:59:11.860Z,0.00
2019-02-04T21:00:11.859Z,4.00
2019-02-04T21:01:11.862Z,0.00
2019-02-04T21:02:11.861Z,0.00
2019-02-04T21:03:11.872Z,0.00
2019-02-04T21:04:11.874Z,0.00
2019-02-04T21:05:11.876Z,0.00
2019-02-04T21:06:11.866Z,4.00
2019-02-04T21:07:11.871Z,0.00
2019-02-04T21:08:11.877Z,0.00
2019-02-04T21:09:11.882Z,0.00
2019-02-04T21:10:12.602Z,0.00
2019-02-04T21:11:11.877Z,0.00
2019-02-04T21:12:11.872Z,0.00
2019-02-04T21:13:11.881Z,0.00
2019-02-04T21:14:11.876Z,0.00
2019-02-04T21:15:11.889Z,0.00
2019-02-04T21:16:11.893Z,0.00
2019-02-04T21:17:11.893Z,0.00
2019-02-04T21:18:11.888Z,0.00
2019-02-04T21:19:11.906Z,4.00
2019-02-04T21:20:11.894Z,0.00
2019-02-04T21:21:11.906Z,0.00
2019-02-04T21:22:11.894Z,0.00
2019-02-04T21:23:11.908Z,0.00
2019-02-04T21:24:11.901Z,0.00
2019-02-04T21:25:11.911Z,0.00
2019-02-04T21:26:11.897Z,0.00
2019-02-04T21:27:11.900Z,0.00
2019-02-04T21:28:11.908Z,0.00
2019-02-04T21:29:11.906Z,0.00
2019-02-04T21:30:11.922Z,0.00
2019-02-04T21:31:11.908Z,0.00
2019-02-04T21:32:11.920Z,0.00
2019-02-04T21:33:11.925Z,0.00
2019-02-04T21:34:11.923Z,0.00
2019-02-04T21:35:11.933Z,0.00
2019-02-04T21:36:11.919Z,0.00
2019-02-04T21:37:11.923Z,0.00
2019-02-04T21:38:11.925Z,0.00
2019-02-04T21:39:11.920Z,0.00
2019-02-04T21:40:11.937Z,0.00
2019-02-04T21:41:11.940Z,0.00
2019-02-04T21:42:11.933Z,0.00
2019-02-04T21:43:11.933Z,0.00
2019-02-04T21:44:11.940Z,0.00
2019-02-04T21:45:11.937Z,0.00
2019-02-04T21:46:11.945Z,0.00
2019-02-04T21:47:11.939Z,0.00
2019-02-04T21:48:11.962Z,0.00
2019-02-04T21:49:11.956Z,0.00
2019-02-04T21:50:11.945Z,0.00
2019-02-04T21:51:11.946Z,0.00
2019-02-04T21:52:11.948Z,0.00
2019-02-04T21:53:11.962Z,0.00
2019-02-04T21:54:11.960Z,0.00
2019-02-04T21:55:11.959Z,0.00
2019-02-04T21:56:11.954Z,0.00
2019-02-04T21:57:11.965Z,0.00
2019-02-04T21:58:11.954Z,0.00
2019-02-04T21:59:11.979Z,0.00
2019-02-04T22:00:11.965Z,0.00
2019-02-04T22:01:11.967Z,0.00
2019-02-04T22:02:11.963Z,0.00
2019-02-04T22:03:11.967Z,0.00
2019-02-04T22:04:11.969Z,0.00
2019-02-04T22:05:11.998Z,0.00
2019-02-04T22:06:11.970Z,0.00
2019-02-04T22:07:11.975Z,4.00
2019-02-04T22:08:11.977Z,0.00
2019-02-04T22:09:11.985Z,0.00
2019-02-04T22:10:12.025Z,0.00
2019-02-04T22:11:11.975Z,0.00
2019-02-04T22:12:11.979Z,0.00
2019-02-04T22:13:11.984Z,0.00
2019-02-04T22:14:11.990Z,0.00
2019-02-04T22:15:11.987Z,0.00
2019-02-04T22:16:11.993Z,0.00
2019-02-04T22:17:11.995Z,0.00
2019-02-04T22:18:11.994Z,0.00
2019-02-04T22:19:11.999Z,0.00
2019-02-04T22:20:12.001Z,0.00
2019-02-04T22:21:12.005Z,0.00
2019-02-04T22:22:11.997Z,0.00
2019-02-04T22:23:11.998Z,0.00
2019-02-04T22:24:13.185Z,0.00
2019-02-04T22:25:19.417Z,0.00
2019-02-04T22:26:12.008Z,0.00
2019-02-04T22:27:12.009Z,0.00
2019-02-04T22:28:12.057Z,0.00
2019-02-04T22:29:12.050Z,0.00
2019-02-04T22:30:12.020Z,0.00
2019-02-04T22:31:12.012Z,0.00
2019-02-04T22:32:12.018Z,0.00
2019-02-04T22:33:12.020Z,0.00
2019-02-04T22:34:12.024Z,0.00
2019-02-04T22:35:12.027Z,0.00
2019-02-04T22:36:12.044Z,0.00
2019-02-04T22:37:12.034Z,0.00
2019-02-04T22:38:12.022Z,0.00
2019-02-04T22:39:12.158Z,0.00
2019-02-04T22:40:12.030Z,0.00
2019-02-04T22:41:12.193Z,0.00
2019-02-04T22:42:12.031Z,0.00
2019-02-04T22:43:12.043Z,0.00
2019-02-04T22:44:12.245Z,0.00
2019-02-04T22:45:12.041Z,0.00
2019-02-04T22:46:12.032Z,0.00
2019-02-04T22:47:12.084Z,0.00
2019-02-04T22:48:12.036Z,0.00
2019-02-04T22:49:12.042Z,0.00
2019-02-04T22:50:12.271Z,0.00
2019-02-04T22:51:12.054Z,0.00
2019-02-04T22:52:12.057Z,0.00
2019-02-04T22:53:12.078Z,0.00
2019-02-04T22:54:12.047Z,0.00
2019-02-04T22:55:12.047Z,0.00
2019-02-04T22:56:12.314Z,0.00
2019-02-04T22:57:12.059Z,0.00
2019-02-04T22:58:12.056Z,0.00
2019-02-04T22:59:18.679Z,0.00
2019-02-04T23:00:12.060Z,0.00
2019-02-04T23:01:12.072Z,0.00
2019-02-04T23:02:12.396Z,0.00
2019-02-04T23:03:12.082Z,0.00
2019-02-04T23:04:12.069Z,0.00
2019-02-04T23:05:12.079Z,0.00
2019-02-04T23:06:12.070Z,0.00
2019-02-04T23:07:12.066Z,0.00
2019-02-04T23:08:12.388Z,0.00
2019-02-04T23:09:12.089Z,0.00
2019-02-04T23:10:12.101Z,0.00
2019-02-04T23:11:12.408Z,0.00
2019-02-04T23:12:12.101Z,0.00
2019-02-04T23:13:12.434Z,0.00
2019-02-04T23:14:12.088Z,0.00
2019-02-04T23:15:12.092Z,0.00
2019-02-04T23:16:12.100Z,0.00
2019-02-04T23:17:12.091Z,0.00
2019-02-04T23:18:12.448Z,0.00
2019-02-04T23:19:12.095Z,0.00
2019-02-04T23:20:12.117Z,0.00
2019-02-04T23:21:12.101Z,0.00
2019-02-04T23:22:12.118Z,0.00
2019-02-04T23:23:12.096Z,0.00
2019-02-04T23:24:12.106Z,0.00
2019-02-04T23:25:12.096Z,0.00
2019-02-04T23:26:12.105Z,0.00
2019-02-04T23:27:12.101Z,0.00
2019-02-04T23:28:12.109Z,0.00
2019-02-04T23:29:12.108Z,0.00
2019-02-04T23:30:12.136Z,0.00
2019-02-04T23:31:12.117Z,0.00
2019-02-04T23:32:12.119Z,0.00
2019-02-04T23:33:12.127Z,0.00
2019-02-04T23:34:12.125Z,0.00
2019-02-04T23:35:12.123Z,0.00
2019-02-04T23:36:12.122Z,0.00
2019-02-04T23:37:12.124Z,0.00
2019-02-04T23:38:12.129Z,0.00
2019-02-04T23:39:12.124Z,0.00
2019-02-04T23:40:12.209Z,0.00
2019-02-04T23:41:12.124Z,0.00
2019-02-04T23:42:12.134Z,0.00
2019-02-04T23:43:12.127Z,0.00
2019-02-04T23:44:12.133Z,0.00
2019-02-04T23:45:12.129Z,0.00
2019-02-04T23:46:12.133Z,0.00
2019-02-04T23:47:12.141Z,0.00
2019-02-04T23:48:12.152Z,0.00
2019-02-04T23:49:12.137Z,0.00
2019-02-04T23:50:12.137Z,0.00
2019-02-04T23:51:12.141Z,0.00
2019-02-04T23:52:12.147Z,0.00
2019-02-04T23:53:12.146Z,0.00
2019-02-04T23:54:12.151Z,0.00
2019-02-04T23:55:12.156Z,0.00
2019-02-04T23:56:12.146Z,0.00
2019-02-04T23:57:12.148Z,0.00
2019-02-04T23:58:12.149Z,0.00
2019-02-04T23:59:12.146Z,0.00
